createdAt,value
2019-05-26T00:01:51.341Z,51.20
2019-05-26T00:04:17.326Z,51.10
2019-05-26T00:06:43.408Z,51.20
2019-05-26T00:09:09.399Z,51.30
2019-05-26T00:11:35.363Z,51.00
2019-05-26T00:14:01.342Z,51.20
2019-05-26T00:16:27.307Z,51.40
2019-05-26T00:18:53.964Z,51.60
2019-05-26T00:21:19.943Z,51.40
2019-05-26T00:23:45.918Z,51.50
2019-05-26T00:26:11.898Z,51.40
2019-05-26T00:28:37.870Z,51.40
2019-05-26T00:31:03.934Z,51.40
2019-05-26T00:33:30.031Z,51.30
2019-05-26T00:35:56.109Z,51.20
2019-05-26T00:38:22.180Z,51.00
2019-05-26T00:40:48.349Z,51.00
2019-05-26T00:43:14.353Z,51.00
2019-05-26T00:45:40.331Z,51.00
2019-05-26T00:48:06.314Z,51.00
2019-05-26T00:50:32.400Z,51.00
2019-05-26T00:52:58.403Z,51.00
2019-05-26T00:55:24.458Z,51.00
2019-05-26T00:57:50.526Z,51.10
2019-05-26T01:00:16.625Z,51.10
2019-05-26T01:02:43.595Z,51.10
2019-05-26T01:05:09.690Z,51.00
2019-05-26T01:07:35.646Z,51.10
2019-05-26T01:10:01.742Z,51.10
2019-05-26T01:12:27.718Z,51.10
2019-05-26T01:14:53.716Z,51.10
2019-05-26T01:17:19.787Z,51.00
2019-05-26T01:19:45.892Z,51.00
2019-05-26T01:22:11.847Z,51.00
2019-05-26T01:24:37.813Z,51.10
2019-05-26T01:27:03.899Z,51.00
2019-05-26T01:29:29.989Z,51.00
2019-05-26T01:31:56.071Z,51.00
2019-05-26T01:34:22.109Z,51.20
2019-05-26T01:36:48.092Z,51.20
2019-05-26T01:39:14.167Z,51.10
2019-05-26T01:41:40.155Z,51.20
2019-05-26T01:44:06.147Z,51.20
2019-05-26T01:46:32.233Z,51.10
2019-05-26T01:48:58.561Z,51.10
2019-05-26T01:51:24.593Z,51.80
2019-05-26T01:53:50.587Z,51.00
2019-05-26T01:56:16.550Z,51.00
2019-05-26T01:58:42.616Z,50.90
2019-05-26T02:01:08.610Z,50.90
2019-05-26T02:03:34.678Z,51.00
2019-05-26T02:06:00.653Z,50.90
2019-05-26T02:08:38.963Z,50.90
2019-05-26T02:10:54.516Z,50.90
2019-05-26T02:13:20.482Z,51.00
2019-05-26T02:15:46.466Z,51.00
2019-05-26T02:18:12.582Z,51.00
2019-05-26T02:20:38.569Z,51.00
2019-05-26T02:23:05.894Z,51.00
2019-05-26T02:25:33.803Z,51.00
2019-05-26T02:27:59.809Z,51.00
2019-05-26T02:30:25.881Z,51.00
2019-05-26T02:32:51.997Z,50.90
2019-05-26T02:35:18.071Z,50.90
2019-05-26T02:37:44.248Z,51.00
2019-05-26T02:40:10.231Z,51.50
2019-05-26T02:42:36.223Z,50.90
2019-05-26T02:45:02.240Z,50.90
2019-05-26T02:47:28.281Z,50.90
2019-05-26T02:49:54.308Z,50.90
2019-05-26T02:52:20.398Z,50.90
2019-05-26T02:54:46.476Z,50.90
2019-05-26T02:57:12.470Z,51.10
2019-05-26T02:59:38.434Z,51.10
2019-05-26T03:02:04.915Z,51.10
2019-05-26T03:04:31.116Z,51.00
2019-05-26T03:06:57.183Z,51.00
2019-05-26T03:09:23.832Z,50.90
2019-05-26T03:11:50.133Z,51.00
2019-05-26T03:14:16.210Z,50.90
2019-05-26T03:16:42.284Z,50.90
2019-05-26T03:19:08.357Z,50.80
2019-05-26T03:21:34.452Z,50.70
2019-05-26T03:24:00.517Z,51.50
2019-05-26T03:26:26.501Z,50.80
2019-05-26T03:28:58.599Z,50.90
2019-05-26T03:31:24.711Z,50.90
2019-05-26T03:33:50.801Z,50.80
2019-05-26T03:36:19.300Z,50.90
2019-05-26T03:38:45.504Z,50.80
2019-05-26T03:41:11.482Z,50.90
2019-05-26T03:43:37.542Z,50.80
2019-05-26T03:46:03.523Z,50.60
2019-05-26T03:48:29.584Z,50.90
2019-05-26T03:50:55.676Z,50.80
2019-05-26T03:53:21.669Z,51.40
2019-05-26T03:55:47.743Z,50.80
2019-05-26T03:58:13.702Z,50.80
2019-05-26T04:00:39.672Z,50.80
2019-05-26T04:03:06.141Z,50.80
2019-05-26T04:05:32.225Z,50.90
2019-05-26T04:08:03.084Z,50.90
2019-05-26T04:10:26.201Z,50.90
2019-05-26T04:12:52.282Z,51.00
2019-05-26T04:15:18.363Z,51.10
2019-05-26T04:17:44.433Z,51.00
2019-05-26T04:20:10.450Z,51.10
2019-05-26T04:22:36.507Z,51.00
2019-05-26T04:25:02.724Z,51.00
2019-05-26T04:27:28.774Z,50.90
2019-05-26T04:29:54.762Z,50.80
2019-05-26T04:32:20.825Z,50.80
2019-05-26T04:34:46.899Z,50.70
2019-05-26T04:37:12.953Z,50.80
2019-05-26T04:39:38.927Z,50.70
2019-05-26T04:42:04.985Z,50.80
2019-05-26T04:44:30.946Z,50.90
2019-05-26T04:46:56.930Z,50.90
2019-05-26T04:49:22.900Z,51.50
2019-05-26T04:51:48.877Z,50.90
2019-05-26T04:54:14.966Z,50.80
2019-05-26T04:56:41.102Z,50.90
2019-05-26T04:59:07.187Z,50.90
2019-05-26T05:01:33.235Z,51.50
2019-05-26T05:04:00.029Z,50.90
2019-05-26T05:06:27.662Z,50.90
2019-05-26T05:08:53.711Z,50.80
2019-05-26T05:11:19.841Z,50.90
2019-05-26T05:13:45.794Z,50.70
2019-05-26T05:16:11.799Z,51.00
2019-05-26T05:18:37.872Z,50.50
2019-05-26T05:21:03.838Z,51.10
2019-05-26T05:23:29.802Z,51.00
2019-05-26T05:25:55.777Z,50.70
2019-05-26T05:28:21.763Z,50.50
2019-05-26T05:30:47.935Z,50.30
2019-05-26T05:33:13.923Z,50.30
2019-05-26T05:35:40.190Z,49.80
2019-05-26T05:38:06.165Z,49.70
2019-05-26T05:40:32.266Z,49.60
2019-05-26T05:42:58.321Z,49.60
2019-05-26T05:45:24.307Z,49.60
2019-05-26T05:47:50.378Z,49.40
2019-05-26T05:50:16.541Z,49.20
2019-05-26T05:52:42.537Z,49.10
2019-05-26T05:55:08.574Z,49.00
2019-05-26T05:57:34.571Z,49.00
2019-05-26T06:00:00.609Z,48.70
2019-05-26T06:02:26.593Z,48.80
2019-05-26T06:04:52.644Z,48.60
2019-05-26T06:07:18.607Z,48.70
2019-05-26T06:09:44.568Z,48.90
2019-05-26T06:12:10.533Z,48.50
2019-05-26T06:14:36.606Z,48.40
2019-05-26T06:17:02.622Z,48.20
2019-05-26T06:19:28.629Z,48.00
2019-05-26T06:21:54.659Z,47.90
2019-05-26T06:24:20.720Z,47.90
2019-05-26T06:26:46.698Z,47.70
2019-05-26T06:29:12.689Z,47.80
2019-05-26T06:31:38.925Z,47.70
2019-05-26T06:34:05.064Z,47.40
2019-05-26T06:36:31.164Z,47.30
2019-05-26T06:38:57.216Z,47.40
2019-05-26T06:41:33.066Z,47.40
2019-05-26T06:43:51.068Z,47.40
2019-05-26T06:46:17.162Z,47.40
2019-05-26T06:48:43.133Z,47.30
2019-05-26T06:51:09.116Z,47.30
2019-05-26T06:53:37.534Z,47.30
2019-05-26T06:56:02.968Z,47.20
2019-05-26T06:58:28.949Z,47.80
2019-05-26T07:00:54.949Z,47.20
2019-05-26T07:03:20.935Z,47.10
2019-05-26T07:05:47.010Z,47.10
2019-05-26T07:08:12.992Z,47.10
2019-05-26T07:10:39.052Z,47.30
2019-05-26T07:13:05.035Z,47.30
2019-05-26T07:15:31.122Z,47.30
2019-05-26T07:17:57.104Z,47.50
2019-05-26T07:20:23.176Z,47.20
2019-05-26T07:22:49.177Z,47.00
2019-05-26T07:25:15.147Z,46.90
2019-05-26T07:27:41.131Z,47.00
2019-05-26T07:30:07.121Z,47.10
2019-05-26T07:32:33.325Z,47.10
2019-05-26T07:34:59.477Z,46.90
2019-05-26T07:37:25.544Z,46.90
2019-05-26T07:39:51.534Z,46.80
2019-05-26T07:42:17.599Z,46.70
2019-05-26T07:44:43.796Z,46.70
2019-05-26T07:47:09.796Z,46.60
2019-05-26T07:49:35.862Z,46.40
2019-05-26T07:52:02.039Z,46.30
2019-05-26T07:54:28.018Z,46.20
2019-05-26T07:56:54.103Z,46.20
2019-05-26T07:59:20.081Z,46.00
2019-05-26T08:01:46.073Z,45.90
2019-05-26T08:04:12.035Z,45.80
2019-05-26T08:06:38.144Z,45.80
2019-05-26T08:09:04.563Z,45.80
2019-05-26T08:11:30.585Z,45.90
2019-05-26T08:13:56.556Z,47.20
2019-05-26T08:16:22.566Z,48.30
2019-05-26T08:18:49.206Z,47.90
2019-05-26T08:21:15.231Z,47.50
2019-05-26T08:23:41.300Z,47.50
2019-05-26T08:26:07.286Z,47.60
2019-05-26T08:28:33.380Z,48.70
2019-05-26T08:30:59.351Z,48.50
2019-05-26T08:33:25.441Z,48.50
2019-05-26T08:35:51.524Z,48.30
2019-05-26T08:38:17.623Z,48.30
2019-05-26T08:40:43.798Z,49.00
2019-05-26T08:43:09.789Z,48.90
2019-05-26T08:45:35.759Z,48.90
2019-05-26T08:48:01.899Z,48.90
2019-05-26T08:50:27.982Z,49.10
2019-05-26T08:52:54.156Z,49.20
2019-05-26T08:55:20.323Z,49.20
2019-05-26T08:57:46.304Z,49.40
2019-05-26T09:00:12.378Z,49.40
2019-05-26T09:02:38.549Z,49.60
2019-05-26T09:05:04.619Z,49.70
2019-05-26T09:07:30.691Z,49.70
2019-05-26T09:09:56.669Z,49.80
2019-05-26T09:12:22.766Z,49.90
2019-05-26T09:14:49.165Z,49.90
2019-05-26T09:17:15.382Z,50.00
2019-05-26T09:19:41.426Z,50.30
2019-05-26T09:22:07.499Z,49.90
2019-05-26T09:24:33.573Z,50.40
2019-05-26T09:26:59.534Z,50.20
2019-05-26T09:29:25.551Z,50.40
2019-05-26T09:31:51.727Z,50.50
2019-05-26T09:34:17.694Z,50.60
2019-05-26T09:36:43.689Z,50.60
2019-05-26T09:39:09.776Z,50.90
2019-05-26T09:41:35.863Z,50.90
2019-05-26T09:44:01.959Z,50.90
2019-05-26T09:46:27.956Z,50.70
2019-05-26T09:48:54.296Z,50.60
2019-05-26T09:51:20.289Z,50.90
2019-05-26T09:53:59.074Z,50.60
2019-05-26T09:56:14.246Z,50.60
2019-05-26T09:58:40.334Z,50.50
2019-05-26T10:01:06.415Z,50.40
2019-05-26T10:03:32.416Z,50.40
2019-05-26T10:05:58.501Z,50.50
2019-05-26T10:08:24.765Z,50.50
2019-05-26T10:10:50.955Z,50.40
2019-05-26T10:13:30.780Z,50.10
2019-05-26T10:15:44.901Z,50.50
2019-05-26T10:18:10.873Z,50.50
2019-05-26T10:20:36.904Z,50.40
2019-05-26T10:23:03.002Z,50.60
2019-05-26T10:25:29.066Z,50.40
2019-05-26T10:27:55.050Z,50.60
2019-05-26T10:30:21.076Z,50.40
2019-05-26T10:32:47.148Z,50.50
2019-05-26T10:35:13.241Z,50.50
2019-05-26T10:37:39.212Z,50.60
2019-05-26T10:40:05.307Z,50.50
2019-05-26T10:42:31.383Z,50.60
2019-05-26T10:44:57.346Z,50.70
2019-05-26T10:47:23.347Z,50.70
2019-05-26T10:49:49.428Z,50.70
2019-05-26T10:52:15.423Z,50.70
2019-05-26T10:54:41.517Z,50.70
2019-05-26T10:57:07.598Z,51.30
2019-05-26T10:59:33.583Z,50.70
2019-05-26T11:01:59.576Z,50.70
2019-05-26T11:04:25.600Z,50.70
2019-05-26T11:06:51.718Z,50.60
2019-05-26T11:09:17.689Z,50.60
2019-05-26T11:11:43.779Z,50.50
2019-05-26T11:14:09.759Z,50.50
2019-05-26T11:16:35.755Z,50.40
2019-05-26T11:19:01.733Z,50.40
2019-05-26T11:21:27.818Z,50.40
2019-05-26T11:23:53.805Z,50.40
2019-05-26T11:26:19.784Z,50.40
2019-05-26T11:28:45.745Z,50.40
2019-05-26T11:31:11.710Z,50.50
2019-05-26T11:33:37.700Z,50.40
2019-05-26T11:36:03.774Z,50.40
2019-05-26T11:38:33.235Z,50.30
2019-05-26T11:40:58.258Z,50.50
2019-05-26T11:43:24.857Z,50.40
2019-05-26T11:45:50.858Z,50.40
2019-05-26T11:48:16.938Z,50.20
2019-05-26T11:50:43.027Z,50.40
2019-05-26T11:53:09.112Z,50.30
2019-05-26T11:55:35.113Z,50.20
2019-05-26T11:58:01.131Z,50.30
2019-05-26T12:00:27.208Z,50.20
2019-05-26T12:02:53.304Z,50.20
2019-05-26T12:05:19.270Z,50.20
2019-05-26T12:07:45.361Z,50.20
2019-05-26T12:10:14.213Z,50.20
2019-05-26T12:12:39.217Z,50.20
2019-05-26T12:15:05.194Z,49.90
2019-05-26T12:17:31.182Z,50.20
2019-05-26T12:19:57.272Z,50.20
2019-05-26T12:22:23.358Z,50.00
2019-05-26T12:24:49.354Z,50.10
2019-05-26T12:27:15.433Z,50.10
2019-05-26T12:29:41.411Z,50.00
2019-05-26T12:32:07.390Z,50.10
2019-05-26T12:34:33.366Z,50.10
2019-05-26T12:36:59.326Z,50.00
2019-05-26T12:39:25.323Z,50.10
2019-05-26T12:41:51.298Z,50.10
2019-05-26T12:44:17.292Z,50.10
2019-05-26T12:46:43.249Z,50.00
2019-05-26T12:49:09.247Z,50.10
2019-05-26T12:51:35.218Z,50.10
2019-05-26T12:54:01.294Z,50.00
2019-05-26T12:56:27.273Z,50.00
2019-05-26T12:58:53.287Z,50.10
2019-05-26T13:01:19.354Z,50.00
2019-05-26T13:03:45.445Z,50.00
2019-05-26T13:06:11.433Z,50.00
2019-05-26T13:08:37.397Z,50.00
2019-05-26T13:11:03.406Z,50.00
2019-05-26T13:13:29.383Z,50.00
2019-05-26T13:15:55.366Z,50.00
2019-05-26T13:18:21.323Z,50.00
2019-05-26T13:20:47.404Z,50.00
2019-05-26T13:23:13.493Z,50.00
2019-05-26T13:25:39.457Z,49.90
2019-05-26T13:28:05.638Z,50.00
2019-05-26T13:30:31.777Z,50.00
2019-05-26T13:32:57.893Z,50.00
2019-05-26T13:35:23.955Z,49.90
2019-05-26T13:37:49.923Z,49.90
2019-05-26T13:40:15.910Z,49.90
2019-05-26T13:42:41.879Z,49.80
2019-05-26T13:45:21.253Z,49.90
2019-05-26T13:47:35.876Z,49.90
2019-05-26T13:50:02.002Z,49.90
2019-05-26T13:52:28.233Z,49.90
2019-05-26T13:54:54.217Z,49.90
2019-05-26T13:57:20.281Z,49.90
2019-05-26T13:59:46.274Z,49.90
2019-05-26T14:02:12.443Z,49.90
2019-05-26T14:04:39.427Z,49.90
2019-05-26T14:07:05.413Z,49.90
2019-05-26T14:09:31.606Z,50.00
2019-05-26T14:11:57.566Z,49.90
2019-05-26T14:14:23.538Z,49.90
2019-05-26T14:16:49.509Z,50.00
2019-05-26T14:19:15.598Z,50.00
2019-05-26T14:21:41.757Z,49.90
2019-05-26T14:24:07.745Z,49.90
2019-05-26T14:26:33.707Z,49.90
2019-05-26T14:28:59.718Z,49.90
2019-05-26T14:31:25.783Z,49.90
2019-05-26T14:33:51.770Z,50.00
2019-05-26T14:36:17.761Z,49.90
2019-05-26T14:38:43.910Z,49.90
2019-05-26T14:41:09.913Z,49.90
2019-05-26T14:43:35.909Z,49.80
2019-05-26T14:46:01.865Z,49.80
2019-05-26T14:48:27.868Z,49.80
2019-05-26T14:50:53.848Z,49.80
2019-05-26T14:53:19.838Z,49.80
2019-05-26T14:55:45.849Z,49.80
2019-05-26T15:01:02.385Z,49.80
2019-05-26T15:03:28.566Z,49.90
2019-05-26T15:06:05.411Z,49.80
2019-05-26T15:08:22.539Z,49.90
2019-05-26T15:10:48.748Z,49.80
2019-05-26T15:13:14.723Z,49.80
2019-05-26T15:15:40.741Z,49.90
2019-05-26T15:18:06.809Z,49.90
2019-05-26T15:20:32.797Z,49.80
2019-05-26T15:22:58.759Z,49.80
2019-05-26T15:25:24.759Z,49.90
2019-05-26T15:27:50.737Z,49.80
2019-05-26T15:30:16.718Z,49.90
2019-05-26T15:32:42.686Z,49.90
2019-05-26T15:35:08.661Z,49.90
2019-05-26T15:37:34.634Z,49.70
2019-05-26T15:40:00.712Z,49.80
2019-05-26T15:42:26.695Z,49.80
2019-05-26T15:44:52.646Z,49.80
2019-05-26T15:47:18.652Z,50.40
2019-05-26T15:49:44.642Z,49.80
2019-05-26T15:52:10.632Z,49.90
2019-05-26T15:54:36.713Z,49.80
2019-05-26T15:57:02.726Z,49.80
2019-05-26T15:59:28.786Z,49.90
2019-05-26T16:01:54.785Z,49.80
2019-05-26T16:04:20.772Z,49.70
2019-05-26T16:06:46.772Z,49.80
2019-05-26T16:09:12.840Z,49.70
2019-05-26T16:11:38.802Z,49.70
2019-05-26T16:14:05.135Z,49.70
2019-05-26T16:16:40.601Z,49.70
2019-05-26T16:18:59.408Z,49.70
2019-05-26T16:21:28.341Z,49.70
2019-05-26T16:23:53.374Z,49.70
2019-05-26T16:26:19.368Z,49.70
2019-05-26T16:28:45.570Z,49.70
2019-05-26T16:31:12.417Z,49.70
2019-05-26T16:33:38.631Z,50.30
2019-05-26T16:36:04.648Z,50.30
2019-05-26T16:38:30.723Z,50.30
2019-05-26T16:40:56.747Z,50.30
2019-05-26T16:43:22.923Z,50.40
2019-05-26T16:45:55.999Z,52.00
2019-05-26T16:48:18.861Z,50.90
2019-05-26T16:50:46.823Z,50.90
2019-05-26T16:53:12.927Z,50.90
2019-05-26T16:55:38.997Z,51.70
2019-05-26T16:58:06.840Z,51.70
2019-05-26T17:00:33.064Z,51.90
2019-05-26T17:02:59.024Z,51.80
2019-05-26T17:05:24.994Z,52.40
2019-05-26T17:07:51.109Z,52.00
2019-05-26T17:10:17.172Z,51.90
2019-05-26T17:12:43.150Z,52.30
2019-05-26T17:15:09.120Z,53.40
2019-05-26T17:17:35.104Z,54.00
2019-05-26T17:20:01.133Z,54.10
2019-05-26T17:22:27.472Z,53.90
2019-05-26T17:24:53.627Z,53.80
2019-05-26T17:27:19.613Z,54.70
2019-05-26T17:29:45.648Z,55.90
2019-05-26T17:32:11.648Z,56.20
2019-05-26T17:34:37.721Z,57.00
2019-05-26T17:37:03.693Z,55.80
2019-05-26T17:39:29.661Z,55.60
2019-05-26T17:41:55.648Z,55.20
2019-05-26T17:44:21.651Z,55.00
2019-05-26T17:46:47.625Z,55.40
2019-05-26T17:49:13.623Z,55.90
2019-05-26T17:51:39.586Z,55.70
2019-05-26T17:54:05.564Z,55.80
2019-05-26T17:56:31.552Z,55.80
2019-05-26T17:58:58.220Z,55.80
2019-05-26T18:01:24.208Z,56.60
2019-05-26T18:03:50.286Z,56.00
2019-05-26T18:06:16.269Z,56.00
2019-05-26T18:08:42.246Z,56.10
2019-05-26T18:11:08.341Z,56.60
2019-05-26T18:13:34.332Z,57.00
2019-05-26T18:16:00.322Z,56.70
2019-05-26T18:18:26.418Z,57.10
2019-05-26T18:20:52.501Z,57.20
2019-05-26T18:23:18.595Z,57.70
2019-05-26T18:25:44.705Z,58.00
2019-05-26T18:28:10.699Z,57.40
2019-05-26T18:30:36.675Z,56.90
2019-05-26T18:33:02.677Z,57.00
2019-05-26T18:35:28.769Z,57.00
2019-05-26T18:37:54.749Z,57.00
2019-05-26T18:40:20.874Z,57.00
2019-05-26T18:42:48.752Z,57.00
2019-05-26T18:45:14.948Z,56.90
2019-05-26T18:47:41.110Z,56.80
2019-05-26T18:50:07.097Z,56.70
2019-05-26T18:52:33.174Z,56.70
2019-05-26T18:54:59.255Z,56.70
2019-05-26T18:57:25.479Z,56.70
2019-05-26T18:59:51.645Z,56.50
2019-05-26T19:02:17.623Z,56.10
2019-05-26T19:04:43.605Z,55.90
2019-05-26T19:07:09.587Z,55.80
2019-05-26T19:09:35.774Z,55.60
2019-05-26T19:12:01.755Z,55.10
2019-05-26T19:14:27.814Z,55.00
2019-05-26T19:16:53.818Z,54.80
2019-05-26T19:19:19.899Z,54.80
2019-05-26T19:21:45.974Z,54.70
2019-05-26T19:24:12.168Z,54.60
2019-05-26T19:26:38.263Z,54.60
2019-05-26T19:29:04.266Z,54.70
2019-05-26T19:31:30.332Z,54.50
2019-05-26T19:33:56.536Z,55.30
2019-05-26T19:36:22.619Z,54.70
2019-05-26T19:38:50.562Z,55.00
2019-05-26T19:41:16.569Z,54.90
2019-05-26T19:43:42.727Z,55.10
2019-05-26T19:46:08.712Z,55.10
2019-05-26T19:48:37.006Z,55.00
2019-05-26T19:51:02.683Z,54.80
2019-05-26T19:53:28.663Z,54.70
2019-05-26T19:55:54.655Z,54.80
2019-05-26T19:58:20.748Z,54.60
2019-05-26T20:00:46.822Z,55.20
2019-05-26T20:03:12.806Z,54.50
2019-05-26T20:05:39.005Z,54.40
2019-05-26T20:08:04.999Z,54.30
2019-05-26T20:10:31.004Z,54.30
2019-05-26T20:12:57.074Z,54.40
2019-05-26T20:15:23.164Z,54.40
2019-05-26T20:17:49.239Z,54.40
2019-05-26T20:20:15.227Z,54.40
2019-05-26T20:22:41.339Z,54.30
2019-05-26T20:25:10.645Z,54.70
2019-05-26T20:27:36.294Z,54.30
2019-05-26T20:30:02.367Z,54.00
2019-05-26T20:32:28.440Z,53.90
2019-05-26T20:34:54.568Z,54.10
2019-05-26T20:37:20.610Z,53.90
2019-05-26T20:39:46.596Z,53.90
2019-05-26T20:42:12.575Z,54.00
2019-05-26T20:44:38.744Z,54.40
2019-05-26T20:47:04.775Z,54.40
2019-05-26T20:49:44.503Z,53.90
2019-05-26T20:51:58.742Z,53.90
2019-05-26T20:54:24.854Z,54.10
2019-05-26T20:56:50.942Z,54.40
2019-05-26T20:59:16.940Z,54.60
2019-05-26T21:01:42.919Z,54.70
2019-05-26T21:04:08.933Z,54.80
2019-05-26T21:06:34.901Z,54.90
2019-05-26T21:09:00.915Z,55.00
2019-05-26T21:11:26.971Z,54.90
2019-05-26T21:13:52.971Z,55.10
2019-05-26T21:16:19.044Z,55.20
2019-05-26T21:18:45.025Z,55.10
2019-05-26T21:21:11.131Z,55.40
2019-05-26T21:23:37.232Z,55.70
2019-05-26T21:26:03.318Z,55.70
2019-05-26T21:28:29.328Z,55.70
2019-05-26T21:30:55.437Z,55.20
2019-05-26T21:33:21.516Z,55.70
2019-05-26T21:35:47.488Z,55.70
2019-05-26T21:38:13.462Z,55.70
2019-05-26T21:40:39.451Z,55.70
2019-05-26T21:43:05.523Z,55.50
2019-05-26T21:45:31.688Z,55.00
2019-05-26T21:47:57.842Z,54.80
2019-05-26T21:50:23.934Z,54.60
2019-05-26T21:52:49.891Z,54.60
2019-05-26T21:55:15.863Z,54.60
2019-05-26T21:57:41.839Z,54.60
2019-05-26T22:00:09.036Z,54.60
2019-05-26T22:02:35.055Z,54.60
2019-05-26T22:05:01.119Z,54.40
2019-05-26T22:07:27.103Z,54.30
2019-05-26T22:09:53.095Z,54.40
2019-05-26T22:12:19.087Z,54.20
2019-05-26T22:14:45.072Z,54.20
2019-05-26T22:17:11.033Z,54.10
2019-05-26T22:19:37.015Z,54.10
2019-05-26T22:22:03.025Z,54.00
2019-05-26T22:24:28.990Z,53.90
2019-05-26T22:26:55.109Z,54.10
2019-05-26T22:29:21.518Z,53.90
2019-05-26T22:31:47.647Z,53.80
2019-05-26T22:34:13.826Z,53.80
2019-05-26T22:36:39.961Z,53.90
2019-05-26T22:39:06.107Z,53.70
2019-05-26T22:41:32.174Z,53.80
2019-05-26T22:43:59.500Z,53.70
2019-05-26T22:46:25.559Z,53.70
2019-05-26T22:48:51.554Z,53.80
2019-05-26T22:51:17.545Z,52.60
2019-05-26T22:53:43.625Z,53.80
2019-05-26T22:56:09.584Z,53.90
2019-05-26T22:58:35.567Z,53.80
2019-05-26T23:01:01.556Z,53.70
2019-05-26T23:03:27.609Z,53.40
2019-05-26T23:05:53.571Z,53.30
2019-05-26T23:08:19.547Z,53.30
2019-05-26T23:10:45.609Z,53.40
2019-05-26T23:13:11.677Z,53.40
2019-05-26T23:15:37.660Z,53.50
2019-05-26T23:18:03.635Z,53.30
2019-05-26T23:20:29.625Z,53.20
2019-05-26T23:22:55.720Z,53.10
2019-05-26T23:25:21.691Z,53.20
2019-05-26T23:27:47.665Z,53.10
2019-05-26T23:30:13.657Z,53.10
2019-05-26T23:32:39.718Z,53.00
2019-05-26T23:35:05.699Z,53.10
2019-05-26T23:37:31.756Z,53.00
2019-05-26T23:39:57.736Z,52.90
2019-05-26T23:42:23.775Z,52.90
2019-05-26T23:44:49.847Z,53.00
2019-05-26T23:47:15.824Z,53.20
2019-05-26T23:49:41.907Z,52.90
2019-05-26T23:52:07.901Z,52.90
2019-05-26T23:54:33.891Z,52.90
2019-05-26T23:56:59.959Z,52.90
2019-05-26T23:59:25.921Z,52.90
